Archival Weather

Chicago O'Hare International

Chicago, Illinois (KORD)

Report from: Wednesday, January 25, 2023 3:27 AM CST
Current time: Monday, February 6, 2023 12:36 AM CST

Current weather
Weather history
Weather forecast

Present weatherLight snow
Temperature0.0°C (32.0°F)
Dew point-2.2°C (28.0°F)
Winds Calm
Visibility0.8 mi. (1.2 km)
Clouds Ceiling: Overcast 700 ft. (213 m)
Altimeter29.92 in.Hg (1013 mB)
Precipitiation0.02 in. (1 mm)
Relative humidity85 %
Density altitude-1,752 ft. (-534 m)
Remarks Automated weather observing station with precipitation discriminator
Flight conditions Low Instrument Meteorological Conditions
Raw dataKORD 250927Z 00000KT 3/4SM R10L/5500V6000FT -SN OVC007 00/M02 A2992 RMK AO2 P0002 T00001022
An error has occurred. This application may no longer respond until reloaded. Reload 🗙